Aérodrome :
LOGIN :

S'inscrire | Disclaimer

   EN    FR    IT 

 










Légende :    VFR   VFR Marginal   IFR   IFR Intensif   IFR Très Intensif
Visi : 
Plafond : 
>= 8 km
>= 3000ft
5 à 8 km
1000 à 3000 ft
1500m à 5 km
500 à 1000 ft
800 à 1500m
200 à 500 ft
< 800m
< 200 ft
Symboles :   Orages  Brouillard  Fortes neiges  Fortes précipitations  Vent > 20 kt
SIGMETs :   Divers  Orages  Givrage  Turbulence  Onde Orograph.  Cendres Volcan.







- Altitude de l'aérodrome : 171 ft
- Code IATA : EGC
- Voir les cartes d'approche


LFBE - Bergerac

DERNIER METAR :
  • 280700Z AUTO 22016G27KT 200V260 9999 SCT015/// BKN020/// BKN031/// ///CB 09/07 Q1002 TEMPO 28020G40KT 2000 RA BKN014 OVC030

METARs EXPIRÉS :
  • 280630Z AUTO 21010KT 180V240 5000 RA BR FEW018/// SCT031/// BKN043/// ///TCU 09/07 Q1003 TEMPO 28020G40KT 2000 RA BKN014 OVC030
  • 280600Z AUTO 22013KT 9999 RA FEW030/// OVC045/// ///TCU 09/07 Q1003 TEMPO 28020G40KT 2000 RA BKN014 OVC030
  • 280530Z AUTO 22011KT 9999 -RA FEW029/// BKN048/// BKN058/// ///TCU 09/07 Q1003 TEMPO 28020G40KT 2000 RA BKN014 OVC030
  • 280500Z AUTO 23015KT 9999 -RA SCT039/// BKN050/// BKN062/// ///CB 09/06 Q1004
  • 280430Z AUTO 20013KT 9999 -RA FEW041/// BKN048/// BKN070/// ///TCU 09/07 Q1004

TAF AMD TAF LFBE
Valide du 28 à 07h jusqu'au 01 à 06h UTC


280716Z 2807/0106 25015G25KT 9999 BKN040
TEMPO 2807/2810 28020G40KT 2000 RA BKN014 FEW020CB OVC030
TEMPO 2810/2818 28020G35KT 4000 SHRA SCT010 FEW020CB BKN025TCU
PROB40
TEMPO 2810/2816 28025G45KT 1500 -TSRA SCT008 BKN015CB
BECMG 2818/2820 24005KT
Pas de NOTAMs connus pour ce terrain.
2 SIGMETs publiés pour la FIR Bordeaux (LFBB) :
 
Turbulence forte
LFBB SIGMET 2 VALID 280800/281200 LFPW
LFBB BORDEAUX FIR/UIR SEV TURB FCST NW OF LINE N4245 E00000 - N4400 E00245 SFC/FL080 STNR NC=
Turbulence forte
LFBB SIGMET 1 VALID 280400/280800 LFPW
LFBB BORDEAUX FIR/UIR SEV TURB FCST WI N4245 W00100 - N4300 W00145 - N4630 W00130 - N4630 W00045 SFC/FL060 STNR NC=



MET'MAP, la Météo Aéronautique d'un coup d'oeil ! - Copyright ORBIFLY Décembre 2007 - Disclaimer

ORBIFLY MET'MAP TEAM :

Programmation & Développement : Alexandra Zaïnal
Conception & Développement : Baudouin d'Aumeries
Co-Programmation & Développement : Marc-Olivier Méhu
Soutien technique & logistique : Manuel Goepfert

Contact : metmap@orbifly.com




SOURCES & CREDITS :

   NOAA